Terminal Aerodrome Forecast
Issued by NWS Grand Forks, ND

Home | Current Version | Previous Version | Text Only | Print | Product List | Glossary On
Versions: 1 2 3 4 5 6 7 8 9 10 11 12 13 14 15
000
FTUS43 KFGF 282047 AAB
TAFGFK
TAF AMD
KGFK 282047Z 2821/2918 21017G25KT P6SM FEW150
     FM290000 22008KT P6SM SCT250
     FM291100 18003KT 5SM BR SKC
     FM291300 18005KT P6SM SKC=

USA.gov is the U.S. government's official web portal to all federal, state and local government web resources and services.